sensor_id;sensor_type;location;lat;lon;timestamp;pressure;altitude;pressure_sealevel;temperature
71564;BMP180;59391;52.504;13.438;2023-04-03T00:01:00;102612.00;;;6.40
71564;BMP180;59391;52.504;13.438;2023-04-03T00:03:26;102610.00;;;6.40
71564;BMP180;59391;52.504;13.438;2023-04-03T00:05:52;102608.00;;;6.40
71564;BMP180;59391;52.504;13.438;2023-04-03T00:08:18;102616.00;;;6.40
71564;BMP180;59391;52.504;13.438;2023-04-03T00:10:44;102610.00;;;6.40
71564;BMP180;59391;52.504;13.438;2023-04-03T00:13:10;102602.00;;;6.40
71564;BMP180;59391;52.504;13.438;2023-04-03T00:15:37;102613.00;;;6.40
71564;BMP180;59391;52.504;13.438;2023-04-03T00:18:03;102606.00;;;6.30
71564;BMP180;59391;52.504;13.438;2023-04-03T00:20:29;102613.00;;;6.30
71564;BMP180;59391;52.504;13.438;2023-04-03T00:22:55;102613.00;;;6.30
71564;BMP180;59391;52.504;13.438;2023-04-03T00:25:21;102607.00;;;6.30
71564;BMP180;59391;52.504;13.438;2023-04-03T00:27:47;102615.00;;;6.30
71564;BMP180;59391;52.504;13.438;2023-04-03T00:30:16;102611.00;;;6.30
71564;BMP180;59391;52.504;13.438;2023-04-03T00:32:42;102616.00;;;6.30
71564;BMP180;59391;52.504;13.438;2023-04-03T00:35:09;102608.00;;;6.30
71564;BMP180;59391;52.504;13.438;2023-04-03T00:37:35;102616.00;;;6.30
71564;BMP180;59391;52.504;13.438;2023-04-03T00:40:01;102613.00;;;6.30
71564;BMP180;59391;52.504;13.438;2023-04-03T00:42:27;102615.00;;;6.30
71564;BMP180;59391;52.504;13.438;2023-04-03T00:47:22;102619.00;;;6.20
71564;BMP180;59391;52.504;13.438;2023-04-03T00:49:49;102613.00;;;6.20
71564;BMP180;59391;52.504;13.438;2023-04-03T00:52:19;102618.00;;;6.20
71564;BMP180;59391;52.504;13.438;2023-04-03T00:54:48;102612.00;;;6.20
71564;BMP180;59391;52.504;13.438;2023-04-03T00:57:16;102610.00;;;6.20
71564;BMP180;59391;52.504;13.438;2023-04-03T00:59:46;102602.00;;;6.10
71564;BMP180;59391;52.504;13.438;2023-04-03T01:02:14;102613.00;;;6.10
71564;BMP180;59391;52.504;13.438;2023-04-03T01:04:42;102619.00;;;6.10
71564;BMP180;59391;52.504;13.438;2023-04-03T01:07:19;102618.00;;;6.10
71564;BMP180;59391;52.504;13.438;2023-04-03T01:09:49;102610.00;;;6.10
71564;BMP180;59391;52.504;13.438;2023-04-03T01:12:30;102615.00;;;6.00
71564;BMP180;59391;52.504;13.438;2023-04-03T01:15:19;102623.00;;;6.00
71564;BMP180;59391;52.504;13.438;2023-04-03T01:17:50;102619.00;;;6.00
71564;BMP180;59391;52.504;13.438;2023-04-03T01:25:45;102608.00;;;5.90
71564;BMP180;59391;52.504;13.438;2023-04-03T01:28:19;102622.00;;;5.90
71564;BMP180;59391;52.504;13.438;2023-04-03T01:33:20;102616.00;;;5.90
71564;BMP180;59391;52.504;13.438;2023-04-03T01:35:46;102618.00;;;5.90
71564;BMP180;59391;52.504;13.438;2023-04-03T01:38:11;102619.00;;;5.90
71564;BMP180;59391;52.504;13.438;2023-04-03T01:40:37;102623.00;;;5.90
71564;BMP180;59391;52.504;13.438;2023-04-03T01:43:02;102628.00;;;5.90
71564;BMP180;59391;52.504;13.438;2023-04-03T01:45:28;102631.00;;;5.90
71564;BMP180;59391;52.504;13.438;2023-04-03T01:47:54;102628.00;;;5.90
71564;BMP180;59391;52.504;13.438;2023-04-03T01:50:20;102632.00;;;5.90
71564;BMP180;59391;52.504;13.438;2023-04-03T01:52:45;102621.00;;;5.90
71564;BMP180;59391;52.504;13.438;2023-04-03T01:55:11;102633.00;;;5.80
71564;BMP180;59391;52.504;13.438;2023-04-03T01:57:36;102630.00;;;5.80
71564;BMP180;59391;52.504;13.438;2023-04-03T02:00:03;102639.00;;;5.80
71564;BMP180;59391;52.504;13.438;2023-04-03T02:02:29;102638.00;;;5.80
71564;BMP180;59391;52.504;13.438;2023-04-03T02:04:54;102649.00;;;5.80
71564;BMP180;59391;52.504;13.438;2023-04-03T02:07:20;102650.00;;;5.70
71564;BMP180;59391;52.504;13.438;2023-04-03T02:09:46;102652.00;;;5.70
71564;BMP180;59391;52.504;13.438;2023-04-03T02:12:12;102649.00;;;5.70
71564;BMP180;59391;52.504;13.438;2023-04-03T02:14:38;102635.00;;;5.70
71564;BMP180;59391;52.504;13.438;2023-04-03T02:17:03;102649.00;;;5.70
71564;BMP180;59391;52.504;13.438;2023-04-03T02:19:34;102645.00;;;5.60
71564;BMP180;59391;52.504;13.438;2023-04-03T02:22:02;102638.00;;;5.60
71564;BMP180;59391;52.504;13.438;2023-04-03T02:24:28;102649.00;;;5.60
71564;BMP180;59391;52.504;13.438;2023-04-03T02:26:54;102650.00;;;5.60
71564;BMP180;59391;52.504;13.438;2023-04-03T02:29:19;102650.00;;;5.50
71564;BMP180;59391;52.504;13.438;2023-04-03T02:31:45;102657.00;;;5.50
71564;BMP180;59391;52.504;13.438;2023-04-03T02:34:11;102656.00;;;5.50
71564;BMP180;59391;52.504;13.438;2023-04-03T02:36:37;102658.00;;;5.50
71564;BMP180;59391;52.504;13.438;2023-04-03T02:39:03;102668.00;;;5.50
71564;BMP180;59391;52.504;13.438;2023-04-03T02:41:28;102670.00;;;5.50
71564;BMP180;59391;52.504;13.438;2023-04-03T02:44:01;102674.00;;;5.40
71564;BMP180;59391;52.504;13.438;2023-04-03T02:46:27;102672.00;;;5.40
71564;BMP180;59391;52.504;13.438;2023-04-03T02:48:52;102678.00;;;5.40
71564;BMP180;59391;52.504;13.438;2023-04-03T02:51:18;102679.00;;;5.40
71564;BMP180;59391;52.504;13.438;2023-04-03T02:53:44;102685.00;;;5.40
71564;BMP180;59391;52.504;13.438;2023-04-03T02:56:09;102684.00;;;5.40
71564;BMP180;59391;52.504;13.438;2023-04-03T02:58:35;102676.00;;;5.40
71564;BMP180;59391;52.504;13.438;2023-04-03T03:01:01;102675.00;;;5.40
71564;BMP180;59391;52.504;13.438;2023-04-03T03:03:27;102684.00;;;5.30
71564;BMP180;59391;52.504;13.438;2023-04-03T03:06:03;102677.00;;;5.30
71564;BMP180;59391;52.504;13.438;2023-04-03T03:08:29;102684.00;;;5.30
71564;BMP180;59391;52.504;13.438;2023-04-03T03:10:55;102680.00;;;5.30
71564;BMP180;59391;52.504;13.438;2023-04-03T03:13:20;102692.00;;;5.30
71564;BMP180;59391;52.504;13.438;2023-04-03T03:15:46;102689.00;;;5.30
71564;BMP180;59391;52.504;13.438;2023-04-03T03:18:11;102694.00;;;5.30
71564;BMP180;59391;52.504;13.438;2023-04-03T03:20:37;102689.00;;;5.30
71564;BMP180;59391;52.504;13.438;2023-04-03T03:23:03;102688.00;;;5.30
71564;BMP180;59391;52.504;13.438;2023-04-03T03:25:28;102692.00;;;5.30
71564;BMP180;59391;52.504;13.438;2023-04-03T03:27:54;102703.00;;;5.30
71564;BMP180;59391;52.504;13.438;2023-04-03T03:30:20;102700.00;;;5.20
71564;BMP180;59391;52.504;13.438;2023-04-03T03:32:46;102697.00;;;5.20
71564;BMP180;59391;52.504;13.438;2023-04-03T03:35:11;102703.00;;;5.20
71564;BMP180;59391;52.504;13.438;2023-04-03T03:37:37;102700.00;;;5.20
71564;BMP180;59391;52.504;13.438;2023-04-03T03:40:03;102696.00;;;5.20
71564;BMP180;59391;52.504;13.438;2023-04-03T03:42:28;102697.00;;;5.20
71564;BMP180;59391;52.504;13.438;2023-04-03T03:44:54;102696.00;;;5.20
71564;BMP180;59391;52.504;13.438;2023-04-03T03:47:20;102702.00;;;5.20
71564;BMP180;59391;52.504;13.438;2023-04-03T03:49:46;102698.00;;;5.20
71564;BMP180;59391;52.504;13.438;2023-04-03T03:52:11;102709.00;;;5.20
71564;BMP180;59391;52.504;13.438;2023-04-03T03:54:37;102705.00;;;5.10
71564;BMP180;59391;52.504;13.438;2023-04-03T03:57:03;102700.00;;;5.10
71564;BMP180;59391;52.504;13.438;2023-04-03T03:59:29;102711.00;;;5.10
71564;BMP180;59391;52.504;13.438;2023-04-03T04:01:54;102698.00;;;5.10
71564;BMP180;59391;52.504;13.438;2023-04-03T04:04:20;102705.00;;;5.10
71564;BMP180;59391;52.504;13.438;2023-04-03T04:06:46;102707.00;;;5.10
71564;BMP180;59391;52.504;13.438;2023-04-03T04:09:12;102702.00;;;5.10
71564;BMP180;59391;52.504;13.438;2023-04-03T04:11:38;102699.00;;;5.10
71564;BMP180;59391;52.504;13.438;2023-04-03T04:14:06;102702.00;;;5.10
71564;BMP180;59391;52.504;13.438;2023-04-03T04:16:31;102697.00;;;5.00
71564;BMP180;59391;52.504;13.438;2023-04-03T04:18:57;102715.00;;;5.00
71564;BMP180;59391;52.504;13.438;2023-04-03T04:21:22;102709.00;;;5.00
71564;BMP180;59391;52.504;13.438;2023-04-03T04:23:51;102695.00;;;5.00
71564;BMP180;59391;52.504;13.438;2023-04-03T04:26:16;102700.00;;;5.00
71564;BMP180;59391;52.504;13.438;2023-04-03T04:28:42;102709.00;;;5.00
71564;BMP180;59391;52.504;13.438;2023-04-03T04:31:08;102697.00;;;5.00
71564;BMP180;59391;52.504;13.438;2023-04-03T04:33:33;102709.00;;;5.00
71564;BMP180;59391;52.504;13.438;2023-04-03T04:35:59;102704.00;;;5.00
71564;BMP180;59391;52.504;13.438;2023-04-03T04:38:25;102708.00;;;4.90
71564;BMP180;59391;52.504;13.438;2023-04-03T04:40:50;102706.00;;;4.90
71564;BMP180;59391;52.504;13.438;2023-04-03T04:43:16;102702.00;;;4.90
71564;BMP180;59391;52.504;13.438;2023-04-03T04:45:42;102713.00;;;4.90
71564;BMP180;59391;52.504;13.438;2023-04-03T04:48:08;102727.00;;;4.90
71564;BMP180;59391;52.504;13.438;2023-04-03T04:50:33;102722.00;;;4.90
71564;BMP180;59391;52.504;13.438;2023-04-03T04:52:59;102710.00;;;4.90
71564;BMP180;59391;52.504;13.438;2023-04-03T04:55:24;102716.00;;;4.90
71564;BMP180;59391;52.504;13.438;2023-04-03T04:57:50;102725.00;;;4.90
71564;BMP180;59391;52.504;13.438;2023-04-03T05:00:16;102730.00;;;4.90
71564;BMP180;59391;52.504;13.438;2023-04-03T05:02:42;102739.00;;;4.90
71564;BMP180;59391;52.504;13.438;2023-04-03T05:05:08;102731.00;;;4.90
71564;BMP180;59391;52.504;13.438;2023-04-03T05:07:34;102724.00;;;4.90
71564;BMP180;59391;52.504;13.438;2023-04-03T05:10:02;102728.00;;;4.90
71564;BMP180;59391;52.504;13.438;2023-04-03T05:12:28;102735.00;;;5.00
71564;BMP180;59391;52.504;13.438;2023-04-03T05:14:54;102731.00;;;4.90
71564;BMP180;59391;52.504;13.438;2023-04-03T05:17:19;102732.00;;;5.00
71564;BMP180;59391;52.504;13.438;2023-04-03T05:19:45;102738.00;;;5.00
71564;BMP180;59391;52.504;13.438;2023-04-03T05:22:11;102736.00;;;5.00
71564;BMP180;59391;52.504;13.438;2023-04-03T05:24:37;102744.00;;;5.00
71564;BMP180;59391;52.504;13.438;2023-04-03T05:27:03;102734.00;;;5.00
71564;BMP180;59391;52.504;13.438;2023-04-03T05:29:30;102739.00;;;5.00
71564;BMP180;59391;52.504;13.438;2023-04-03T05:31:55;102739.00;;;5.10
71564;BMP180;59391;52.504;13.438;2023-04-03T05:34:22;102747.00;;;5.10
71564;BMP180;59391;52.504;13.438;2023-04-03T05:36:47;102749.00;;;5.10
71564;BMP180;59391;52.504;13.438;2023-04-03T05:39:13;102751.00;;;5.10
71564;BMP180;59391;52.504;13.438;2023-04-03T05:41:39;102749.00;;;5.20
71564;BMP180;59391;52.504;13.438;2023-04-03T05:44:05;102749.00;;;5.20
71564;BMP180;59391;52.504;13.438;2023-04-03T05:46:31;102762.00;;;5.20
71564;BMP180;59391;52.504;13.438;2023-04-03T05:48:56;102766.00;;;5.20
71564;BMP180;59391;52.504;13.438;2023-04-03T05:51:28;102758.00;;;5.30
71564;BMP180;59391;52.504;13.438;2023-04-03T05:54:03;102763.00;;;5.30
71564;BMP180;59391;52.504;13.438;2023-04-03T05:56:31;102751.00;;;5.30
71564;BMP180;59391;52.504;13.438;2023-04-03T05:58:56;102761.00;;;5.30
71564;BMP180;59391;52.504;13.438;2023-04-03T06:01:22;102764.00;;;5.40
71564;BMP180;59391;52.504;13.438;2023-04-03T06:03:48;102769.00;;;5.40
71564;BMP180;59391;52.504;13.438;2023-04-03T06:06:14;102775.00;;;5.40
71564;BMP180;59391;52.504;13.438;2023-04-03T06:08:40;102768.00;;;5.50
71564;BMP180;59391;52.504;13.438;2023-04-03T06:11:06;102777.00;;;5.50
71564;BMP180;59391;52.504;13.438;2023-04-03T06:13:34;102772.00;;;5.50
71564;BMP180;59391;52.504;13.438;2023-04-03T06:16:00;102777.00;;;5.60
71564;BMP180;59391;52.504;13.438;2023-04-03T06:18:26;102767.00;;;5.60
71564;BMP180;59391;52.504;13.438;2023-04-03T06:20:52;102786.00;;;5.70
71564;BMP180;59391;52.504;13.438;2023-04-03T06:23:17;102783.00;;;5.70
71564;BMP180;59391;52.504;13.438;2023-04-03T06:25:43;102786.00;;;5.70
71564;BMP180;59391;52.504;13.438;2023-04-03T06:28:09;102784.00;;;5.80
71564;BMP180;59391;52.504;13.438;2023-04-03T06:30:36;102767.00;;;5.80
71564;BMP180;59391;52.504;13.438;2023-04-03T06:33:03;102771.00;;;5.90
71564;BMP180;59391;52.504;13.438;2023-04-03T06:35:28;102780.00;;;5.90
71564;BMP180;59391;52.504;13.438;2023-04-03T06:37:56;102791.00;;;6.00
71564;BMP180;59391;52.504;13.438;2023-04-03T06:40:24;102780.00;;;6.00
71564;BMP180;59391;52.504;13.438;2023-04-03T06:42:51;102787.00;;;6.10
71564;BMP180;59391;52.504;13.438;2023-04-03T06:45:17;102796.00;;;6.20
71564;BMP180;59391;52.504;13.438;2023-04-03T06:47:43;102796.00;;;6.20
71564;BMP180;59391;52.504;13.438;2023-04-03T06:50:10;102794.00;;;6.30
71564;BMP180;59391;52.504;13.438;2023-04-03T06:52:37;102804.00;;;6.30
71564;BMP180;59391;52.504;13.438;2023-04-03T06:55:03;102792.00;;;6.40
71564;BMP180;59391;52.504;13.438;2023-04-03T06:57:29;102794.00;;;6.40
71564;BMP180;59391;52.504;13.438;2023-04-03T06:59:55;102809.00;;;6.50
71564;BMP180;59391;52.504;13.438;2023-04-03T07:02:20;102822.00;;;6.50
71564;BMP180;59391;52.504;13.438;2023-04-03T07:04:47;102798.00;;;6.60
71564;BMP180;59391;52.504;13.438;2023-04-03T07:07:12;102804.00;;;6.60
71564;BMP180;59391;52.504;13.438;2023-04-03T07:09:38;102813.00;;;6.70
71564;BMP180;59391;52.504;13.438;2023-04-03T07:12:04;102819.00;;;6.70
71564;BMP180;59391;52.504;13.438;2023-04-03T07:14:29;102812.00;;;6.80
71564;BMP180;59391;52.504;13.438;2023-04-03T07:16:55;102811.00;;;6.80
71564;BMP180;59391;52.504;13.438;2023-04-03T07:19:21;102825.00;;;6.90
71564;BMP180;59391;52.504;13.438;2023-04-03T07:21:47;102819.00;;;6.90
71564;BMP180;59391;52.504;13.438;2023-04-03T07:24:12;102818.00;;;7.00
71564;BMP180;59391;52.504;13.438;2023-04-03T07:26:38;102819.00;;;7.10
71564;BMP180;59391;52.504;13.438;2023-04-03T07:29:04;102821.00;;;7.20
71564;BMP180;59391;52.504;13.438;2023-04-03T07:31:30;102827.00;;;7.40
71564;BMP180;59391;52.504;13.438;2023-04-03T07:33:55;102822.00;;;7.60
71564;BMP180;59391;52.504;13.438;2023-04-03T07:36:23;102825.00;;;7.70
71564;BMP180;59391;52.504;13.438;2023-04-03T07:38:48;102818.00;;;7.80
71564;BMP180;59391;52.504;13.438;2023-04-03T07:41:18;102833.00;;;7.90
71564;BMP180;59391;52.504;13.438;2023-04-03T07:43:44;102819.00;;;8.00
71564;BMP180;59391;52.504;13.438;2023-04-03T07:46:10;102835.00;;;8.10
71564;BMP180;59391;52.504;13.438;2023-04-03T07:48:36;102826.00;;;8.20
71564;BMP180;59391;52.504;13.438;2023-04-03T07:51:03;102828.00;;;8.40
71564;BMP180;59391;52.504;13.438;2023-04-03T07:53:30;102830.00;;;8.50
71564;BMP180;59391;52.504;13.438;2023-04-03T07:55:59;102831.00;;;8.70
71564;BMP180;59391;52.504;13.438;2023-04-03T07:58:25;102834.00;;;8.80
71564;BMP180;59391;52.504;13.438;2023-04-03T08:00:51;102818.00;;;8.90
71564;BMP180;59391;52.504;13.438;2023-04-03T08:03:17;102830.00;;;8.90
71564;BMP180;59391;52.504;13.438;2023-04-03T08:05:46;102830.00;;;9.00
71564;BMP180;59391;52.504;13.438;2023-04-03T08:08:16;102830.00;;;9.00
71564;BMP180;59391;52.504;13.438;2023-04-03T08:10:42;102828.00;;;9.10
71564;BMP180;59391;52.504;13.438;2023-04-03T08:13:09;102841.00;;;9.20
71564;BMP180;59391;52.504;13.438;2023-04-03T08:15:36;102834.00;;;9.20
71564;BMP180;59391;52.504;13.438;2023-04-03T08:18:02;102835.00;;;9.30
71564;BMP180;59391;52.504;13.438;2023-04-03T08:20:28;102842.00;;;9.40
71564;BMP180;59391;52.504;13.438;2023-04-03T08:22:54;102831.00;;;9.40
71564;BMP180;59391;52.504;13.438;2023-04-03T08:25:20;102831.00;;;9.50
71564;BMP180;59391;52.504;13.438;2023-04-03T08:27:46;102836.00;;;9.60
71564;BMP180;59391;52.504;13.438;2023-04-03T08:30:12;102832.00;;;9.60
71564;BMP180;59391;52.504;13.438;2023-04-03T08:32:38;102833.00;;;9.60
71564;BMP180;59391;52.504;13.438;2023-04-03T08:35:05;102828.00;;;9.70
71564;BMP180;59391;52.504;13.438;2023-04-03T08:37:31;102828.00;;;9.70
71564;BMP180;59391;52.504;13.438;2023-04-03T08:39:59;102817.00;;;9.70
71564;BMP180;59391;52.504;13.438;2023-04-03T08:42:47;102823.00;;;9.70
71564;BMP180;59391;52.504;13.438;2023-04-03T08:45:18;102828.00;;;9.70
71564;BMP180;59391;52.504;13.438;2023-04-03T08:48:07;102828.00;;;9.70
71564;BMP180;59391;52.504;13.438;2023-04-03T08:50:43;102820.00;;;9.70
71564;BMP180;59391;52.504;13.438;2023-04-03T08:53:21;102831.00;;;9.70
71564;BMP180;59391;52.504;13.438;2023-04-03T08:55:53;102820.00;;;9.70
71564;BMP180;59391;52.504;13.438;2023-04-03T08:58:29;102826.00;;;9.80
71564;BMP180;59391;52.504;13.438;2023-04-03T09:01:04;102821.00;;;9.90
71564;BMP180;59391;52.504;13.438;2023-04-03T09:03:34;102822.00;;;10.00
71564;BMP180;59391;52.504;13.438;2023-04-03T09:06:13;102830.00;;;10.20
71564;BMP180;59391;52.504;13.438;2023-04-03T09:09:07;102826.00;;;10.40
71564;BMP180;59391;52.504;13.438;2023-04-03T09:12:00;102831.00;;;10.40
71564;BMP180;59391;52.504;13.438;2023-04-03T09:14:41;102835.00;;;10.40
71564;BMP180;59391;52.504;13.438;2023-04-03T09:17:34;102836.00;;;10.60
71564;BMP180;59391;52.504;13.438;2023-04-03T09:22:41;102820.00;;;11.60
71564;BMP180;59391;52.504;13.438;2023-04-03T09:25:23;102829.00;;;12.10
71564;BMP180;59391;52.504;13.438;2023-04-03T09:27:52;102827.00;;;12.60
71564;BMP180;59391;52.504;13.438;2023-04-03T09:30:21;102816.00;;;13.30
71564;BMP180;59391;52.504;13.438;2023-04-03T09:32:52;102824.00;;;13.70
71564;BMP180;59391;52.504;13.438;2023-04-03T09:37:58;102832.00;;;13.40
71564;BMP180;59391;52.504;13.438;2023-04-03T09:42:53;102831.00;;;13.20
71564;BMP180;59391;52.504;13.438;2023-04-03T09:45:32;102828.00;;;13.20
71564;BMP180;59391;52.504;13.438;2023-04-03T09:48:23;102821.00;;;13.20
71564;BMP180;59391;52.504;13.438;2023-04-03T09:50:57;102824.00;;;13.20
71564;BMP180;59391;52.504;13.438;2023-04-03T09:58:45;102822.00;;;12.90
71564;BMP180;59391;52.504;13.438;2023-04-03T10:04:18;102815.00;;;12.60
71564;BMP180;59391;52.504;13.438;2023-04-03T10:06:48;102809.00;;;12.40
71564;BMP180;59391;52.504;13.438;2023-04-03T10:09:24;102820.00;;;12.30
71564;BMP180;59391;52.504;13.438;2023-04-03T10:12:10;102806.00;;;12.20
71564;BMP180;59391;52.504;13.438;2023-04-03T10:20:06;102805.00;;;12.20
71564;BMP180;59391;52.504;13.438;2023-04-03T10:26:12;102803.00;;;12.20
71564;BMP180;59391;52.504;13.438;2023-04-03T10:35:00;102784.00;;;12.00
71564;BMP180;59391;52.504;13.438;2023-04-03T10:37:47;102796.00;;;12.10
71564;BMP180;59391;52.504;13.438;2023-04-03T10:40:29;102795.00;;;12.30
71564;BMP180;59391;52.504;13.438;2023-04-03T10:43:14;102794.00;;;12.50
71564;BMP180;59391;52.504;13.438;2023-04-03T10:46:04;102786.00;;;12.70
71564;BMP180;59391;52.504;13.438;2023-04-03T10:49:01;102790.00;;;12.70
71564;BMP180;59391;52.504;13.438;2023-04-03T10:51:48;102788.00;;;12.80
71564;BMP180;59391;52.504;13.438;2023-04-03T10:54:47;102778.00;;;12.70
71564;BMP180;59391;52.504;13.438;2023-04-03T10:57:14;102782.00;;;12.80
71564;BMP180;59391;52.504;13.438;2023-04-03T10:59:53;102774.00;;;12.80
71564;BMP180;59391;52.504;13.438;2023-04-03T11:02:27;102778.00;;;12.70
71564;BMP180;59391;52.504;13.438;2023-04-03T11:05:06;102770.00;;;12.70
71564;BMP180;59391;52.504;13.438;2023-04-03T11:07:43;102767.00;;;12.60
71564;BMP180;59391;52.504;13.438;2023-04-03T11:12:57;102765.00;;;12.60
71564;BMP180;59391;52.504;13.438;2023-04-03T11:15:24;102762.00;;;12.50
71564;BMP180;59391;52.504;13.438;2023-04-03T11:17:58;102767.00;;;12.50
71564;BMP180;59391;52.504;13.438;2023-04-03T11:20:30;102771.00;;;12.60
71564;BMP180;59391;52.504;13.438;2023-04-03T11:23:19;102765.00;;;12.60
71564;BMP180;59391;52.504;13.438;2023-04-03T11:25:50;102764.00;;;12.70
71564;BMP180;59391;52.504;13.438;2023-04-03T11:28:17;102757.00;;;12.70
71564;BMP180;59391;52.504;13.438;2023-04-03T11:31:18;102746.00;;;12.70
71564;BMP180;59391;52.504;13.438;2023-04-03T11:34:13;102752.00;;;12.80
71564;BMP180;59391;52.504;13.438;2023-04-03T11:36:46;102749.00;;;12.80
71564;BMP180;59391;52.504;13.438;2023-04-03T11:39:30;102761.00;;;12.80
71564;BMP180;59391;52.504;13.438;2023-04-03T11:44:43;102764.00;;;12.70
71564;BMP180;59391;52.504;13.438;2023-04-03T11:47:12;102742.00;;;12.80
71564;BMP180;59391;52.504;13.438;2023-04-03T11:50:00;102753.00;;;12.80
71564;BMP180;59391;52.504;13.438;2023-04-03T12:16:28;102752.00;;;12.70
71564;BMP180;59391;52.504;13.438;2023-04-03T12:19:43;102756.00;;;12.70
71564;BMP180;59391;52.504;13.438;2023-04-03T12:35:12;102740.00;;;12.80
71564;BMP180;59391;52.504;13.438;2023-04-03T12:38:31;102736.00;;;12.70
71564;BMP180;59391;52.504;13.438;2023-04-03T12:41:38;102721.00;;;12.80
71564;BMP180;59391;52.504;13.438;2023-04-03T12:44:46;102730.00;;;13.10
71564;BMP180;59391;52.504;13.438;2023-04-03T12:47:23;102732.00;;;13.10
71564;BMP180;59391;52.504;13.438;2023-04-03T12:49:51;102723.00;;;13.10
71564;BMP180;59391;52.504;13.438;2023-04-03T12:52:38;102716.00;;;13.00
71564;BMP180;59391;52.504;13.438;2023-04-03T12:55:15;102721.00;;;12.80
71564;BMP180;59391;52.504;13.438;2023-04-03T12:57:41;102731.00;;;12.70
71564;BMP180;59391;52.504;13.438;2023-04-03T13:00:32;102728.00;;;12.60
71564;BMP180;59391;52.504;13.438;2023-04-03T13:03:02;102723.00;;;12.60
71564;BMP180;59391;52.504;13.438;2023-04-03T13:05:31;102732.00;;;12.70
71564;BMP180;59391;52.504;13.438;2023-04-03T13:08:02;102725.00;;;12.70
71564;BMP180;59391;52.504;13.438;2023-04-03T13:10:29;102725.00;;;12.80
71564;BMP180;59391;52.504;13.438;2023-04-03T13:12:58;102715.00;;;12.90
71564;BMP180;59391;52.504;13.438;2023-04-03T13:15:44;102725.00;;;12.90
71564;BMP180;59391;52.504;13.438;2023-04-03T13:18:34;102715.00;;;13.00
71564;BMP180;59391;52.504;13.438;2023-04-03T13:21:06;102720.00;;;13.00
71564;BMP180;59391;52.504;13.438;2023-04-03T13:23:36;102732.00;;;13.00
71564;BMP180;59391;52.504;13.438;2023-04-03T13:26:04;102703.00;;;13.00
71564;BMP180;59391;52.504;13.438;2023-04-03T13:28:33;102716.00;;;12.90
71564;BMP180;59391;52.504;13.438;2023-04-03T13:31:18;102715.00;;;12.90
71564;BMP180;59391;52.504;13.438;2023-04-03T13:36:45;102704.00;;;12.80
71564;BMP180;59391;52.504;13.438;2023-04-03T13:41:44;102688.00;;;12.70
71564;BMP180;59391;52.504;13.438;2023-04-03T13:46:52;102702.00;;;12.50
71564;BMP180;59391;52.504;13.438;2023-04-03T13:49:29;102704.00;;;12.40
71564;BMP180;59391;52.504;13.438;2023-04-03T13:51:56;102699.00;;;12.20
71564;BMP180;59391;52.504;13.438;2023-04-03T13:54:33;102695.00;;;12.20
71564;BMP180;59391;52.504;13.438;2023-04-03T13:57:00;102691.00;;;12.10
71564;BMP180;59391;52.504;13.438;2023-04-03T13:59:34;102695.00;;;12.10
71564;BMP180;59391;52.504;13.438;2023-04-03T14:04:33;102700.00;;;12.10
71564;BMP180;59391;52.504;13.438;2023-04-03T14:07:12;102692.00;;;12.20
71564;BMP180;59391;52.504;13.438;2023-04-03T14:09:38;102699.00;;;12.30
71564;BMP180;59391;52.504;13.438;2023-04-03T14:12:12;102705.00;;;12.40
71564;BMP180;59391;52.504;13.438;2023-04-03T14:14:39;102698.00;;;12.50
71564;BMP180;59391;52.504;13.438;2023-04-03T14:17:20;102698.00;;;12.60
71564;BMP180;59391;52.504;13.438;2023-04-03T14:19:48;102689.00;;;12.70
71564;BMP180;59391;52.504;13.438;2023-04-03T14:22:23;102701.00;;;12.70
71564;BMP180;59391;52.504;13.438;2023-04-03T14:24:50;102687.00;;;12.70
71564;BMP180;59391;52.504;13.438;2023-04-03T14:29:46;102689.00;;;12.70
71564;BMP180;59391;52.504;13.438;2023-04-03T14:32:15;102686.00;;;12.90
71564;BMP180;59391;52.504;13.438;2023-04-03T14:34:42;102691.00;;;13.80
71564;BMP180;59391;52.504;13.438;2023-04-03T14:37:12;102700.00;;;14.50
71564;BMP180;59391;52.504;13.438;2023-04-03T14:39:39;102683.00;;;14.60
71564;BMP180;59391;52.504;13.438;2023-04-03T14:42:05;102680.00;;;14.50
71564;BMP180;59391;52.504;13.438;2023-04-03T14:44:31;102692.00;;;14.40
71564;BMP180;59391;52.504;13.438;2023-04-03T14:46:57;102686.00;;;14.20
71564;BMP180;59391;52.504;13.438;2023-04-03T14:49:27;102691.00;;;13.90
71564;BMP180;59391;52.504;13.438;2023-04-03T14:51:56;102692.00;;;13.70
71564;BMP180;59391;52.504;13.438;2023-04-03T14:54:24;102691.00;;;13.50
71564;BMP180;59391;52.504;13.438;2023-04-03T14:56:57;102688.00;;;13.30
71564;BMP180;59391;52.504;13.438;2023-04-03T14:59:31;102677.00;;;13.00
71564;BMP180;59391;52.504;13.438;2023-04-03T15:01:57;102680.00;;;12.90
71564;BMP180;59391;52.504;13.438;2023-04-03T15:04:23;102679.00;;;12.70
71564;BMP180;59391;52.504;13.438;2023-04-03T15:06:49;102688.00;;;12.50
71564;BMP180;59391;52.504;13.438;2023-04-03T15:09:25;102691.00;;;12.40
71564;BMP180;59391;52.504;13.438;2023-04-03T15:11:53;102685.00;;;12.20
71564;BMP180;59391;52.504;13.438;2023-04-03T15:14:20;102697.00;;;12.10
71564;BMP180;59391;52.504;13.438;2023-04-03T15:16:46;102684.00;;;12.00
71564;BMP180;59391;52.504;13.438;2023-04-03T15:19:12;102688.00;;;11.80
71564;BMP180;59391;52.504;13.438;2023-04-03T15:21:39;102691.00;;;11.70
71564;BMP180;59391;52.504;13.438;2023-04-03T15:24:05;102675.00;;;11.60
71564;BMP180;59391;52.504;13.438;2023-04-03T15:26:32;102683.00;;;11.50
71564;BMP180;59391;52.504;13.438;2023-04-03T15:28:58;102678.00;;;11.40
71564;BMP180;59391;52.504;13.438;2023-04-03T15:31:24;102689.00;;;11.30
71564;BMP180;59391;52.504;13.438;2023-04-03T15:33:49;102665.00;;;11.20
71564;BMP180;59391;52.504;13.438;2023-04-03T15:36:15;102682.00;;;11.20
71564;BMP180;59391;52.504;13.438;2023-04-03T15:38:41;102669.00;;;11.10
71564;BMP180;59391;52.504;13.438;2023-04-03T15:41:06;102679.00;;;11.00
71564;BMP180;59391;52.504;13.438;2023-04-03T15:43:32;102669.00;;;11.00